createdAt,value
2019-02-24T03:34:18.030Z,-3.31
2019-02-24T03:35:19.351Z,-3.32
2019-02-24T03:36:18.510Z,-3.37
2019-02-24T03:39:17.722Z,-3.27
2019-02-24T03:40:17.449Z,-3.27
2019-02-24T03:41:17.397Z,-3.20
2019-02-24T03:42:17.307Z,-3.17
2019-02-24T03:43:17.117Z,-3.16
2019-02-24T03:44:17.157Z,-3.17
2019-02-24T03:45:17.064Z,-3.17
2019-02-24T03:46:16.873Z,-3.21
2019-02-24T03:47:16.823Z,-3.22
2019-02-24T03:48:16.800Z,-3.22
2019-02-24T03:49:16.718Z,-3.24
2019-02-24T03:50:16.618Z,-3.13
2019-02-24T03:51:16.479Z,-3.17
2019-02-24T03:52:16.351Z,-3.17
2019-02-24T03:53:16.409Z,-3.13
2019-02-24T03:54:16.249Z,-3.07
2019-02-24T03:55:16.224Z,-3.16
2019-02-24T03:56:16.095Z,-3.06
2019-02-24T03:57:15.994Z,-3.09
2019-02-24T03:58:15.883Z,-3.10
2019-02-24T03:59:15.826Z,-3.06
2019-02-24T04:00:15.712Z,-3.04
2019-02-24T04:01:15.713Z,-3.03
2019-02-24T04:02:15.522Z,-3.01
2019-02-24T04:03:15.468Z,-3.03
2019-02-24T04:04:15.337Z,-3.03
2019-02-24T04:05:15.340Z,-3.01
2019-02-24T04:06:15.164Z,-3.01
2019-02-24T04:07:15.142Z,-3.06
2019-02-24T04:08:15.011Z,-2.98
2019-02-24T04:09:15.064Z,-2.98
2019-02-24T04:10:14.797Z,-3.03
2019-02-24T04:11:14.885Z,-3.03
2019-02-24T04:12:14.659Z,-3.01
2019-02-24T04:13:14.545Z,-2.99
2019-02-24T04:14:14.504Z,-3.11
2019-02-24T04:15:14.408Z,-3.16
2019-02-24T04:16:14.348Z,-3.17
2019-02-24T04:17:14.255Z,-3.13
2019-02-24T04:18:14.253Z,-3.20
2019-02-24T04:19:14.201Z,-3.34
2019-02-24T04:20:14.085Z,-3.24
2019-02-24T04:21:14.019Z,-3.28
2019-02-24T04:22:13.910Z,-3.24
2019-02-24T04:23:13.763Z,-3.32
2019-02-24T04:24:13.580Z,-3.35
2019-02-24T04:25:13.633Z,-3.37
2019-02-24T04:26:13.452Z,-3.25
2019-02-24T04:27:13.394Z,-3.25
2019-02-24T04:28:13.358Z,-3.28
2019-02-24T04:29:13.201Z,-3.31
2019-02-24T04:30:13.102Z,-3.27
2019-02-24T04:31:13.105Z,-3.28
2019-02-24T04:32:12.970Z,-3.24
2019-02-24T04:33:12.854Z,-3.27
2019-02-24T04:34:13.030Z,-3.34
2019-02-24T04:35:12.625Z,-3.35
2019-02-24T04:36:12.628Z,-3.31
2019-02-24T04:37:12.536Z,-3.34
2019-02-24T04:38:12.376Z,-3.34
2019-02-24T04:39:12.482Z,-3.32
2019-02-24T04:40:12.248Z,-3.39
2019-02-24T04:41:12.224Z,-3.39
2019-02-24T04:42:12.100Z,-3.32
2019-02-24T04:43:11.932Z,-3.30
2019-02-24T04:44:11.896Z,-3.34
2019-02-24T04:45:11.772Z,-3.32
2019-02-24T04:46:11.851Z,-3.35
2019-02-24T04:47:11.622Z,-3.34
2019-02-24T04:48:11.680Z,-3.34
2019-02-24T04:49:11.541Z,-3.25
2019-02-24T04:50:11.433Z,-3.31
2019-02-24T04:51:11.352Z,-3.39
2019-02-24T04:52:11.352Z,-3.34
2019-02-24T04:53:11.133Z,-3.34
2019-02-24T04:54:11.052Z,-3.32
2019-02-24T04:55:10.974Z,-3.22
2019-02-24T04:56:10.936Z,-3.28
2019-02-24T04:57:10.858Z,-3.35
2019-02-24T04:58:10.673Z,-3.34
2019-02-24T04:59:10.720Z,-3.35
2019-02-24T05:00:10.603Z,-3.34
2019-02-24T05:01:10.475Z,-3.39
2019-02-24T05:02:10.414Z,-3.42
2019-02-24T05:03:10.311Z,-3.31
2019-02-24T05:04:10.125Z,-3.45
2019-02-24T05:05:10.088Z,-3.45
2019-02-24T05:06:09.974Z,-3.39
2019-02-24T05:07:10.177Z,-3.40
2019-02-24T05:08:09.939Z,-3.39
2019-02-24T05:09:09.764Z,-3.39
2019-02-24T05:10:09.709Z,-3.40
2019-02-24T05:11:09.660Z,-3.43
2019-02-24T05:12:09.454Z,-3.43
2019-02-24T05:13:09.377Z,-3.45
2019-02-24T05:14:09.368Z,-3.50
2019-02-24T05:15:09.260Z,-3.48
2019-02-24T05:16:09.077Z,-3.49
2019-02-24T05:17:09.031Z,-3.52
2019-02-24T05:18:08.933Z,-3.50
2019-02-24T05:19:08.896Z,-3.42
2019-02-24T05:20:08.761Z,-3.42
2019-02-24T05:21:08.648Z,-3.45
2019-02-24T05:22:08.579Z,-3.39
2019-02-24T05:23:08.508Z,-3.45
2019-02-24T05:24:08.414Z,-3.43
2019-02-24T05:25:08.388Z,-3.39
2019-02-24T05:26:08.473Z,-3.45
2019-02-24T05:27:08.135Z,-3.45
2019-02-24T05:28:08.023Z,-3.45
2019-02-24T05:29:08.075Z,-3.39
2019-02-24T05:30:07.970Z,-3.46
2019-02-24T05:31:07.805Z,-3.37
2019-02-24T05:32:07.749Z,-3.35
2019-02-24T05:33:07.663Z,-3.37
2019-02-24T05:34:07.624Z,-3.37
2019-02-24T05:35:07.407Z,-3.35
2019-02-24T05:36:07.326Z,-3.40
2019-02-24T05:37:07.352Z,-3.39
2019-02-24T05:38:07.199Z,-3.40
2019-02-24T05:39:07.087Z,-3.39
2019-02-24T05:40:07.035Z,-3.48
2019-02-24T05:41:07.068Z,-3.43
2019-02-24T05:42:06.954Z,-3.37
2019-02-24T05:43:06.849Z,-3.37
2019-02-24T05:44:06.633Z,-3.42
2019-02-24T05:45:06.593Z,-3.48
2019-02-24T05:46:06.487Z,-3.50
2019-02-24T05:47:06.390Z,-3.55
2019-02-24T05:48:06.451Z,-3.60
2019-02-24T05:49:06.276Z,-3.66
2019-02-24T05:50:06.212Z,-3.63
2019-02-24T05:51:06.092Z,-3.63
2019-02-24T05:52:06.053Z,-3.67
2019-02-24T05:53:05.931Z,-3.66
2019-02-24T05:54:05.833Z,-3.63
2019-02-24T05:55:05.765Z,-3.66
2019-02-24T05:56:05.677Z,-3.64
2019-02-24T05:57:05.700Z,-3.67
2019-02-24T05:58:05.582Z,-3.63
2019-02-24T05:59:05.432Z,-3.55
2019-02-24T06:00:05.294Z,-3.57
2019-02-24T06:01:05.171Z,-3.67
2019-02-24T06:02:05.178Z,-3.48
2019-02-24T06:03:04.978Z,-3.50
2019-02-24T06:04:04.959Z,-3.60
2019-02-24T06:05:04.848Z,-3.60
2019-02-24T06:06:04.788Z,-3.57
2019-02-24T06:07:04.653Z,-3.49
2019-02-24T06:08:04.558Z,-3.46
2019-02-24T06:09:04.462Z,-3.49
2019-02-24T06:10:04.379Z,-3.48
2019-02-24T06:11:04.282Z,-3.55
2019-02-24T06:12:04.199Z,-3.55
2019-02-24T06:13:04.152Z,-3.49
2019-02-24T06:14:04.078Z,-3.46
2019-02-24T06:15:03.953Z,-3.49
2019-02-24T06:16:03.858Z,-3.50
2019-02-24T06:17:03.787Z,-3.49
2019-02-24T06:18:03.701Z,-3.48
2019-02-24T06:19:03.642Z,-3.53
2019-02-24T06:20:03.524Z,-3.50
2019-02-24T06:21:03.415Z,-3.46
2019-02-24T06:22:03.338Z,-3.49
2019-02-24T06:23:03.280Z,-3.49
2019-02-24T06:24:03.205Z,-3.45
2019-02-24T06:25:03.087Z,-3.49
2019-02-24T06:26:03.000Z,-3.53
2019-02-24T06:27:02.940Z,-3.60
2019-02-24T06:28:02.823Z,-3.63
2019-02-24T06:29:02.725Z,-3.58
2019-02-24T06:30:05.410Z,-3.58
2019-02-24T06:31:02.592Z,-3.63
2019-02-24T06:32:02.472Z,-3.50
2019-02-24T06:33:02.424Z,-3.61
2019-02-24T06:34:02.302Z,-3.63
2019-02-24T06:35:02.227Z,-3.63
2019-02-24T06:36:02.183Z,-3.67
2019-02-24T06:37:02.036Z,-3.78
2019-02-24T06:38:01.995Z,-3.79
2019-02-24T06:39:01.925Z,-3.71
2019-02-24T06:40:01.778Z,-3.74
2019-02-24T06:41:01.786Z,-3.60
2019-02-24T06:42:01.740Z,-3.71
2019-02-24T06:43:01.549Z,-3.60
2019-02-24T06:44:01.514Z,-3.58
2019-02-24T06:45:01.369Z,-3.49
2019-02-24T06:46:01.316Z,-3.53
2019-02-24T06:47:01.261Z,-3.49
2019-02-24T06:48:01.132Z,-3.50
2019-02-24T06:49:01.041Z,-3.48
2019-02-24T06:50:01.015Z,-3.52
2019-02-24T06:51:00.868Z,-3.52
2019-02-24T06:52:00.791Z,-3.50
2019-02-24T06:53:00.687Z,-3.48
2019-02-24T06:54:00.584Z,-3.49
2019-02-24T06:55:00.586Z,-3.46
2019-02-24T06:56:00.432Z,-3.40
2019-02-24T06:57:00.307Z,-3.30
2019-02-24T06:58:00.255Z,-3.28
2019-02-24T06:59:00.129Z,-3.24
2019-02-24T07:00:00.039Z,-3.20
2019-02-24T07:01:00.052Z,-3.17
2019-02-24T07:01:59.876Z,-3.10
2019-02-24T07:02:59.800Z,-3.22
2019-02-24T07:03:59.740Z,-3.21
2019-02-24T07:04:59.649Z,-3.16
2019-02-24T07:05:59.552Z,-3.04
2019-02-24T07:06:59.468Z,-3.04
2019-02-24T07:07:59.378Z,-3.01
2019-02-24T07:08:59.316Z,-3.06
2019-02-24T07:09:59.286Z,-3.04
2019-02-24T07:10:59.088Z,-2.86
2019-02-24T07:11:59.050Z,-2.93
2019-02-24T07:12:58.975Z,-2.78
2019-02-24T07:13:58.867Z,-2.80
2019-02-24T07:14:58.782Z,-2.83
2019-02-24T07:15:58.657Z,-2.77
2019-02-24T07:16:58.601Z,-2.68
2019-02-24T07:17:58.554Z,-2.62
2019-02-24T07:18:58.548Z,-2.62
2019-02-24T07:19:58.402Z,-2.53
2019-02-24T07:20:58.272Z,-2.41
2019-02-24T07:21:58.191Z,-2.39
2019-02-24T07:22:58.086Z,-2.28
2019-02-24T07:23:57.996Z,-2.30
2019-02-24T07:24:57.945Z,-2.19
2019-02-24T07:25:57.826Z,-2.10
2019-02-24T07:26:57.774Z,-2.16
2019-02-24T07:27:57.659Z,-2.12
2019-02-24T07:28:57.613Z,-2.07
2019-02-24T07:29:57.584Z,-1.89
2019-02-24T07:30:57.503Z,-1.83
2019-02-24T07:31:57.343Z,-1.73
2019-02-24T07:32:57.221Z,-1.52
2019-02-24T07:33:57.099Z,-1.38
2019-02-24T07:34:57.130Z,-1.20
2019-02-24T07:35:56.980Z,-1.03
2019-02-24T07:36:56.901Z,-0.77
2019-02-24T07:37:56.781Z,-0.72
2019-02-24T07:38:56.818Z,-0.58
2019-02-24T07:39:56.663Z,-0.44
2019-02-24T07:40:56.568Z,-0.38
2019-02-24T07:41:56.434Z,-0.32
2019-02-24T07:42:56.353Z,-0.29
2019-02-24T07:43:56.261Z,-0.04
2019-02-24T07:44:56.191Z,0.04
2019-02-24T07:45:56.084Z,0.17
2019-02-24T07:46:55.985Z,0.29
2019-02-24T07:47:55.889Z,0.31
2019-02-24T07:48:55.817Z,0.68
2019-02-24T07:49:55.761Z,0.82
2019-02-24T07:50:55.631Z,1.04
2019-02-24T07:51:55.553Z,1.23
2019-02-24T07:52:55.543Z,1.47
2019-02-24T07:53:55.390Z,1.61
2019-02-24T07:54:55.288Z,1.84
2019-02-24T07:55:55.203Z,2.12
2019-02-24T07:56:55.119Z,2.12
2019-02-24T07:57:55.041Z,2.21
2019-02-24T07:58:54.947Z,2.20
2019-02-24T07:59:54.870Z,2.23
2019-02-24T08:00:54.781Z,2.23
2019-02-24T08:01:54.702Z,2.37
2019-02-24T08:02:54.618Z,2.42
2019-02-24T08:03:54.533Z,2.60
2019-02-24T08:04:54.450Z,2.67
2019-02-24T08:05:54.354Z,2.86
2019-02-24T08:06:54.274Z,3.03
2019-02-24T08:07:54.200Z,2.96
2019-02-24T08:08:54.117Z,3.22
2019-02-24T08:09:54.018Z,3.29
2019-02-24T08:10:53.942Z,3.43
2019-02-24T08:11:53.849Z,3.59
2019-02-24T08:12:53.768Z,3.75
2019-02-24T08:13:53.726Z,3.72
2019-02-24T08:14:53.609Z,3.84
2019-02-24T08:15:53.519Z,4.08
2019-02-24T08:16:53.433Z,4.15
2019-02-24T08:17:53.354Z,4.10
2019-02-24T08:18:53.305Z,4.25
2019-02-24T08:19:53.237Z,4.40
2019-02-24T08:20:53.171Z,4.56
2019-02-24T08:21:53.012Z,4.73
2019-02-24T08:22:52.929Z,4.73
2019-02-24T08:23:52.855Z,4.92
2019-02-24T08:24:52.763Z,4.96
2019-02-24T08:25:52.710Z,5.02
2019-02-24T08:26:52.659Z,5.11
2019-02-24T08:27:54.067Z,5.11
2019-02-24T08:28:52.426Z,5.24
2019-02-24T08:29:52.343Z,5.18
2019-02-24T08:30:52.262Z,5.28
2019-02-24T08:31:52.184Z,5.26
2019-02-24T08:32:52.097Z,5.18
2019-02-24T08:33:52.026Z,5.29
2019-02-24T08:34:53.031Z,5.28
2019-02-24T08:35:51.850Z,5.20
2019-02-24T08:36:51.760Z,5.36
2019-02-24T08:37:51.720Z,5.18
2019-02-24T08:38:51.600Z,5.18
2019-02-24T08:39:51.528Z,5.29
2019-02-24T08:40:51.437Z,5.34
2019-02-24T08:41:51.411Z,5.29
2019-02-24T08:42:51.266Z,5.39
2019-02-24T08:43:51.190Z,5.52
2019-02-24T08:44:51.102Z,5.67
2019-02-24T08:45:51.054Z,5.63
2019-02-24T08:46:50.943Z,5.81
2019-02-24T08:47:50.857Z,5.95
2019-02-24T08:48:50.783Z,6.13
2019-02-24T08:49:50.704Z,6.29
2019-02-24T08:50:50.610Z,6.36
2019-02-24T08:51:50.571Z,6.34
2019-02-24T08:52:50.453Z,6.39
2019-02-24T08:53:50.416Z,6.33
2019-02-24T08:54:50.321Z,6.14
2019-02-24T08:55:50.214Z,6.06
2019-02-24T08:56:50.114Z,6.06
2019-02-24T08:57:50.061Z,6.17
2019-02-24T08:58:49.975Z,6.26
2019-02-24T08:59:49.935Z,6.24
2019-02-24T09:00:51.330Z,6.13
2019-02-24T09:01:49.744Z,6.04
2019-02-24T09:02:49.663Z,5.96
2019-02-24T09:03:49.572Z,5.89
2019-02-24T09:04:49.509Z,5.95
2019-02-24T09:05:49.386Z,5.83
2019-02-24T09:06:49.306Z,5.97
2019-02-24T09:07:49.233Z,5.95
2019-02-24T09:08:49.139Z,6.15
2019-02-24T09:09:49.074Z,6.32
2019-02-24T09:10:48.976Z,6.34
2019-02-24T09:11:48.895Z,6.33
2019-02-24T09:12:48.847Z,6.41
2019-02-24T09:13:48.794Z,6.41
2019-02-24T09:14:48.647Z,6.41
2019-02-24T09:15:48.647Z,6.52
2019-02-24T09:16:48.498Z,6.57
2019-02-24T09:17:48.429Z,6.65
2019-02-24T09:18:48.372Z,6.47
2019-02-24T09:19:48.284Z,6.37
2019-02-24T09:20:48.272Z,6.17
2019-02-24T09:21:48.119Z,6.11
2019-02-24T09:22:47.999Z,6.10
2019-02-24T09:23:48.003Z,5.95
2019-02-24T09:24:47.883Z,5.81
2019-02-24T09:25:48.001Z,5.65
2019-02-24T09:26:52.405Z,5.54
2019-02-24T09:27:47.705Z,5.42
2019-02-24T09:28:47.640Z,5.44
2019-02-24T09:29:47.481Z,5.42
2019-02-24T09:30:47.351Z,5.42
2019-02-24T09:31:47.609Z,5.52
2019-02-24T09:32:48.158Z,5.56
2019-02-24T09:33:47.421Z,5.59
2019-02-24T09:34:47.174Z,5.56
2019-02-24T09:35:47.229Z,5.62
2019-02-24T09:36:46.903Z,5.62
2019-02-24T09:37:46.850Z,5.59
2019-02-24T09:38:46.757Z,5.59
2019-02-24T09:39:46.703Z,5.52
2019-02-24T09:40:46.583Z,5.68
2019-02-24T09:41:46.513Z,5.57
2019-02-24T09:42:46.438Z,5.67
2019-02-24T09:43:46.473Z,5.71
2019-02-24T09:44:46.326Z,5.68
2019-02-24T09:45:46.436Z,5.78
2019-02-24T09:46:46.156Z,5.77
2019-02-24T09:47:47.039Z,5.80
2019-02-24T09:48:45.953Z,5.74
2019-02-24T09:49:45.938Z,5.74
2019-02-24T09:50:45.794Z,5.85
2019-02-24T09:51:45.690Z,5.75
2019-02-24T09:52:45.578Z,5.57
2019-02-24T09:53:45.482Z,5.56
2019-02-24T09:54:45.399Z,5.57
2019-02-24T09:55:45.369Z,5.54
2019-02-24T09:56:45.239Z,5.59
2019-02-24T09:57:45.162Z,5.53
2019-02-24T09:58:45.138Z,5.60
2019-02-24T09:59:45.006Z,5.57
2019-02-24T10:00:44.967Z,5.71
2019-02-24T10:01:44.891Z,5.53
2019-02-24T10:06:05.804Z,5.62
2019-02-24T10:07:01.719Z,5.72
2019-02-24T10:09:53.224Z,5.92
2019-02-24T10:10:51.146Z,5.86
2019-02-24T10:12:53.149Z,5.86
2019-02-24T10:13:53.066Z,5.93
2019-02-24T10:14:53.118Z,5.93
2019-02-24T10:15:52.944Z,5.95
2019-02-24T10:16:53.168Z,5.93
2019-02-24T10:17:53.098Z,5.90
2019-02-24T10:18:50.499Z,6.08
2019-02-24T10:19:52.514Z,6.07
2019-02-24T10:20:51.200Z,6.06
2019-02-24T10:21:52.678Z,6.14
2019-02-24T10:22:53.489Z,6.18
2019-02-24T10:23:52.385Z,6.22
2019-02-24T10:24:52.025Z,6.32
2019-02-24T10:25:52.074Z,6.29
2019-02-24T10:26:52.162Z,6.34
2019-02-24T10:27:49.923Z,6.22
2019-02-24T10:28:51.693Z,6.17
2019-02-24T10:30:51.603Z,6.21
2019-02-24T10:31:50.735Z,6.21
2019-02-24T10:32:49.715Z,6.17
2019-02-24T10:33:50.651Z,6.18
2019-02-24T10:34:50.630Z,6.08
2019-02-24T10:35:49.509Z,6.10
2019-02-24T10:36:51.564Z,6.07
2019-02-24T10:37:51.515Z,6.26
2019-02-24T10:38:51.592Z,6.29
2019-02-24T10:39:51.530Z,6.29
2019-02-24T10:40:51.484Z,6.45
2019-02-24T10:41:49.030Z,6.37
2019-02-24T10:42:51.503Z,6.48
2019-02-24T10:43:51.454Z,6.66
2019-02-24T10:52:00.278Z,7.85
2019-02-24T10:52:59.659Z,7.91
2019-02-24T10:54:53.252Z,8.07
2019-02-24T10:55:52.833Z,8.17
2019-02-24T10:56:52.702Z,8.22
2019-02-24T10:57:52.626Z,8.29
2019-02-24T10:58:52.563Z,8.43
2019-02-24T10:59:52.937Z,8.42
2019-02-24T11:00:53.348Z,8.48
2019-02-24T11:01:52.818Z,8.68
2019-02-24T11:02:53.195Z,8.61
2019-02-24T11:03:52.516Z,8.66
2019-02-24T11:04:53.078Z,8.54
2019-02-24T11:05:52.458Z,8.43
2019-02-24T11:06:52.851Z,8.51
2019-02-24T11:07:52.828Z,8.36
2019-02-24T11:08:53.253Z,8.11
2019-02-24T11:09:52.624Z,7.93
2019-02-24T11:10:52.033Z,7.63
2019-02-24T11:11:52.433Z,7.55
2019-02-24T11:12:51.455Z,7.34
2019-02-24T11:13:52.914Z,7.27
2019-02-24T11:14:51.250Z,7.19
2019-02-24T11:15:51.169Z,7.20
2019-02-24T11:16:51.102Z,7.30
2019-02-24T11:17:51.002Z,7.31
2019-02-24T11:18:50.956Z,7.47
2019-02-24T11:19:50.844Z,7.56
2019-02-24T11:20:50.786Z,7.55
2019-02-24T11:21:50.684Z,7.68
2019-02-24T11:22:50.608Z,7.72
2019-02-24T11:23:50.530Z,7.78
2019-02-24T11:24:50.472Z,7.82
2019-02-24T11:25:50.368Z,7.96
2019-02-24T11:26:50.281Z,7.90
2019-02-24T11:27:50.207Z,7.96
2019-02-24T11:28:50.127Z,7.97
2019-02-24T11:29:50.042Z,8.09
2019-02-24T11:30:49.971Z,8.22
2019-02-24T11:31:49.886Z,8.29
2019-02-24T11:32:49.813Z,8.36
2019-02-24T11:33:49.741Z,8.42
2019-02-24T11:34:49.656Z,8.39
2019-02-24T11:35:49.569Z,8.52
2019-02-24T11:36:49.488Z,8.57
2019-02-24T11:37:49.415Z,8.72
2019-02-24T11:38:49.326Z,8.72
2019-02-24T11:39:49.249Z,8.85
2019-02-24T11:40:49.184Z,8.80
2019-02-24T11:41:49.084Z,8.73
2019-02-24T11:42:49.009Z,8.73
2019-02-24T11:43:48.933Z,8.75
2019-02-24T11:44:48.852Z,8.57
2019-02-24T11:45:48.764Z,8.40
2019-02-24T11:46:48.692Z,8.42
2019-02-24T11:47:48.610Z,8.37
2019-02-24T11:48:48.538Z,8.42
2019-02-24T11:49:48.454Z,8.52
2019-02-24T11:50:48.392Z,8.39
2019-02-24T11:51:48.297Z,8.37
2019-02-24T11:52:48.214Z,8.40
2019-02-24T11:53:48.301Z,8.37
2019-02-24T11:54:48.059Z,8.39
2019-02-24T11:55:47.978Z,8.37
2019-02-24T11:56:47.966Z,8.29
2019-02-24T11:57:47.818Z,8.40
2019-02-24T11:58:47.739Z,8.47
2019-02-24T11:59:47.656Z,8.65
2019-02-24T12:00:47.578Z,8.80
2019-02-24T12:01:47.945Z,9.03
2019-02-24T12:02:47.466Z,9.05
2019-02-24T12:03:47.341Z,9.14
2019-02-24T12:04:47.319Z,9.17
2019-02-24T12:05:47.191Z,9.24
2019-02-24T12:06:47.106Z,9.20
2019-02-24T12:07:47.019Z,9.16
2019-02-24T12:08:46.951Z,9.20
2019-02-24T12:09:46.914Z,9.03
2019-02-24T12:10:46.785Z,9.09
2019-02-24T12:11:46.708Z,9.02
2019-02-24T12:12:46.634Z,9.14
2019-02-24T12:13:46.556Z,9.13
2019-02-24T12:14:46.471Z,9.17
2019-02-24T12:15:46.397Z,9.17
2019-02-24T12:16:46.344Z,9.34
2019-02-24T12:17:46.230Z,9.35
2019-02-24T12:18:46.196Z,9.34
2019-02-24T12:19:46.074Z,9.40
2019-02-24T12:20:46.002Z,9.65
2019-02-24T12:21:45.920Z,9.67
2019-02-24T12:22:45.880Z,9.78
2019-02-24T12:23:45.764Z,9.79
2019-02-24T12:24:45.681Z,9.80
2019-02-24T12:25:45.611Z,9.83
2019-02-24T12:26:45.529Z,9.82
2019-02-24T12:27:45.458Z,9.90
2019-02-24T12:28:45.422Z,9.96
2019-02-24T12:29:45.313Z,10.00
2019-02-24T12:30:45.209Z,9.98
2019-02-24T12:31:45.136Z,9.93
2019-02-24T12:32:45.053Z,9.85
2019-02-24T12:33:44.972Z,9.90
2019-02-24T12:34:44.896Z,10.06
2019-02-24T12:35:44.839Z,9.97
2019-02-24T12:36:44.803Z,10.03
2019-02-24T12:37:44.655Z,10.08
2019-02-24T12:38:44.599Z,10.11
2019-02-24T12:39:44.554Z,10.08
2019-02-24T12:40:44.474Z,10.13
2019-02-24T12:41:44.347Z,10.19
2019-02-24T12:42:44.271Z,10.21
2019-02-24T12:43:44.195Z,10.41
2019-02-24T12:44:44.111Z,10.55
2019-02-24T12:45:44.044Z,10.56
2019-02-24T12:46:43.993Z,10.71
2019-02-24T12:47:43.883Z,10.84
2019-02-24T12:48:43.806Z,10.77
2019-02-24T12:49:43.771Z,10.87
2019-02-24T12:50:43.707Z,10.91
2019-02-24T12:51:43.573Z,10.81
2019-02-24T12:52:43.490Z,10.87
2019-02-24T12:53:43.407Z,10.87
2019-02-24T12:54:43.334Z,10.85
2019-02-24T12:55:43.265Z,11.03
2019-02-24T12:56:43.173Z,11.11
2019-02-24T12:57:43.102Z,11.06
2019-02-24T12:58:43.040Z,11.11
2019-02-24T12:59:43.034Z,11.13
2019-02-24T13:00:42.927Z,11.11
2019-02-24T13:01:44.240Z,11.05
2019-02-24T13:02:42.705Z,11.00
2019-02-24T13:03:42.676Z,10.91
2019-02-24T13:04:42.620Z,10.98
2019-02-24T13:05:42.506Z,10.91
2019-02-24T13:06:42.426Z,10.84
2019-02-24T13:07:42.361Z,10.91
2019-02-24T13:08:42.303Z,10.88
2019-02-24T13:09:42.168Z,11.02
2019-02-24T13:10:42.088Z,11.10
2019-02-24T13:11:42.006Z,11.32
2019-02-24T13:12:41.934Z,11.28
2019-02-24T13:13:41.857Z,11.39
2019-02-24T13:14:41.787Z,11.36
2019-02-24T13:15:41.696Z,11.38
2019-02-24T13:16:41.621Z,11.31
2019-02-24T13:17:41.550Z,11.36
2019-02-24T13:18:41.504Z,11.38
2019-02-24T13:19:41.448Z,11.31
2019-02-24T13:20:41.328Z,11.34
2019-02-24T13:21:41.264Z,11.26
2019-02-24T13:22:41.164Z,11.28
2019-02-24T13:23:41.075Z,11.26
2019-02-24T13:24:41.031Z,11.29
2019-02-24T13:25:40.999Z,11.16
2019-02-24T13:26:40.892Z,11.08
2019-02-24T13:27:40.766Z,11.18
2019-02-24T13:28:50.142Z,11.02
2019-02-24T13:29:40.608Z,11.10
2019-02-24T13:30:40.546Z,11.13
2019-02-24T13:31:40.513Z,11.24
2019-02-24T13:32:40.385Z,11.32
2019-02-24T13:33:40.298Z,11.32
2019-02-24T13:34:40.330Z,11.17
2019-02-24T13:35:40.757Z,11.11
2019-02-24T13:36:40.069Z,11.13
2019-02-24T13:37:39.989Z,11.08
2019-02-24T13:38:39.925Z,11.03
2019-02-24T13:39:39.839Z,11.11
2019-02-24T13:40:39.762Z,11.26
2019-02-24T13:41:39.726Z,11.29
2019-02-24T13:42:39.605Z,11.41
2019-02-24T13:43:39.586Z,11.53
2019-02-24T13:44:39.520Z,11.50
2019-02-24T13:45:39.372Z,11.51
2019-02-24T13:46:39.352Z,11.49
2019-02-24T13:47:39.276Z,11.60
2019-02-24T13:48:39.143Z,11.54
2019-02-24T13:49:39.059Z,11.72
2019-02-24T13:50:38.993Z,11.71
2019-02-24T13:51:38.906Z,11.87
2019-02-24T13:52:38.835Z,11.93
2019-02-24T13:53:38.801Z,11.78
2019-02-24T13:54:38.719Z,11.86
2019-02-24T13:55:38.648Z,11.97
2019-02-24T13:56:38.564Z,11.97
2019-02-24T13:57:38.507Z,12.11
2019-02-24T13:58:38.416Z,12.08
2019-02-24T13:59:38.293Z,12.12
2019-02-24T14:00:38.218Z,12.09
2019-02-24T14:01:38.136Z,12.05
2019-02-24T14:02:38.062Z,12.00
2019-02-24T14:03:38.040Z,12.23
2019-02-24T14:04:37.902Z,12.18
2019-02-24T14:05:37.831Z,12.26
2019-02-24T14:06:37.762Z,12.28
2019-02-24T14:07:37.675Z,12.33
2019-02-24T14:08:37.596Z,12.23
2019-02-24T14:09:37.527Z,12.28
2019-02-24T14:10:37.445Z,12.26
2019-02-24T14:11:37.379Z,12.24
2019-02-24T14:12:37.292Z,12.27
2019-02-24T14:13:37.209Z,12.42
2019-02-24T14:14:37.137Z,12.44
2019-02-24T14:15:37.066Z,12.44
2019-02-24T14:16:36.979Z,12.27
2019-02-24T14:17:37.066Z,12.36
2019-02-24T14:18:36.834Z,12.36
2019-02-24T14:19:36.765Z,12.46
2019-02-24T14:20:36.677Z,12.41
2019-02-24T14:21:36.625Z,12.46
2019-02-24T14:22:36.575Z,12.48
2019-02-24T14:23:36.449Z,12.63
2019-02-24T14:24:36.371Z,12.59
2019-02-24T14:25:36.331Z,12.61
2019-02-24T14:26:36.213Z,12.59
2019-02-24T14:27:36.221Z,12.60
2019-02-24T14:28:36.074Z,12.55
2019-02-24T14:29:36.017Z,12.56
2019-02-24T14:30:35.943Z,12.59
2019-02-24T14:31:35.829Z,12.61
2019-02-24T14:32:35.750Z,12.64
2019-02-24T14:33:35.672Z,12.73
2019-02-24T14:34:35.603Z,12.77
2019-02-24T14:35:35.524Z,12.85
2019-02-24T14:36:35.449Z,12.73
2019-02-24T14:37:35.369Z,12.53
2019-02-24T14:38:35.288Z,12.60
2019-02-24T14:39:35.222Z,12.56
2019-02-24T14:40:35.137Z,12.53
2019-02-24T14:41:35.097Z,12.39
2019-02-24T14:42:34.989Z,12.42
2019-02-24T14:43:34.904Z,12.41
2019-02-24T14:44:34.832Z,12.49
2019-02-24T14:45:34.752Z,12.44
2019-02-24T14:46:34.719Z,12.49
2019-02-24T14:47:34.630Z,12.52
2019-02-24T14:48:34.528Z,12.33
2019-02-24T14:49:34.450Z,12.46
2019-02-24T14:50:34.382Z,12.44
2019-02-24T14:51:34.297Z,12.59
2019-02-24T14:52:34.238Z,12.60
2019-02-24T14:53:34.138Z,12.64
2019-02-24T14:54:34.059Z,12.78
2019-02-24T14:55:33.997Z,12.84
2019-02-24T14:56:33.906Z,12.84
2019-02-24T14:57:33.834Z,12.89
2019-02-24T14:58:33.751Z,12.85
2019-02-24T14:59:33.679Z,12.86
2019-02-24T15:00:33.612Z,12.86
2019-02-24T15:01:33.527Z,12.79
2019-02-24T15:02:41.984Z,12.69
2019-02-24T15:03:33.378Z,12.69
2019-02-24T15:04:33.298Z,12.61
2019-02-24T15:05:33.215Z,12.60
2019-02-24T15:06:33.202Z,12.55
2019-02-24T15:07:33.212Z,12.46
2019-02-24T15:08:33.039Z,12.45
2019-02-24T15:09:32.930Z,12.41
2019-02-24T15:10:32.831Z,12.28
2019-02-24T15:11:32.764Z,12.28
2019-02-24T15:12:32.677Z,12.30
2019-02-24T15:13:32.603Z,12.31
2019-02-24T15:14:32.531Z,12.15
2019-02-24T15:15:33.421Z,12.24
2019-02-24T15:16:32.396Z,12.30
2019-02-24T15:17:32.294Z,12.31
2019-02-24T15:18:32.253Z,12.33
2019-02-24T15:19:32.185Z,12.18
2019-02-24T15:20:32.076Z,12.16
2019-02-24T15:21:32.005Z,12.19
2019-02-24T15:22:31.911Z,12.15
2019-02-24T15:23:31.834Z,12.11
2019-02-24T15:24:31.776Z,12.06
2019-02-24T15:25:31.678Z,12.05
2019-02-24T15:26:31.608Z,12.09
2019-02-24T15:27:31.523Z,11.95
2019-02-24T15:28:31.458Z,11.93
2019-02-24T15:29:31.381Z,12.02
2019-02-24T15:30:31.302Z,11.95
2019-02-24T15:31:31.218Z,11.89
2019-02-24T15:32:31.167Z,11.94
2019-02-24T15:33:31.065Z,11.98
2019-02-24T15:34:30.997Z,12.03
2019-02-24T15:35:30.909Z,12.11
2019-02-24T15:36:30.856Z,12.05
2019-02-24T15:37:30.785Z,12.06
2019-02-24T15:38:30.683Z,11.98
2019-02-24T15:39:30.614Z,11.97
2019-02-24T15:40:30.531Z,11.95
2019-02-24T15:41:30.473Z,11.83
2019-02-24T15:42:30.371Z,11.98
2019-02-24T15:43:30.296Z,11.84
2019-02-24T15:44:30.224Z,11.76
2019-02-24T15:45:30.143Z,11.75
2019-02-24T15:46:30.061Z,11.57
2019-02-24T15:47:30.048Z,11.49
2019-02-24T15:48:29.934Z,11.36
2019-02-24T15:49:29.835Z,11.24
2019-02-24T15:50:29.755Z,11.17
2019-02-24T15:51:29.946Z,11.10
2019-02-24T15:52:29.604Z,11.06
2019-02-24T15:53:29.522Z,10.99
2019-02-24T15:54:29.451Z,10.98
2019-02-24T15:55:29.378Z,10.95
2019-02-24T15:56:29.295Z,10.83
2019-02-24T15:57:29.214Z,10.75
2019-02-24T15:58:29.135Z,10.58
2019-02-24T15:59:29.059Z,10.55
2019-02-24T16:00:28.982Z,10.39
2019-02-24T16:01:28.901Z,10.33
2019-02-24T16:02:28.827Z,10.18
2019-02-24T16:03:28.748Z,10.03
2019-02-24T16:04:28.674Z,9.92
2019-02-24T16:05:28.596Z,9.82
2019-02-24T16:06:36.903Z,9.70
2019-02-24T16:07:28.473Z,9.68
2019-02-24T16:08:28.366Z,9.56
2019-02-24T16:09:28.317Z,9.61
2019-02-24T16:10:28.216Z,9.56
2019-02-24T16:11:28.131Z,9.67
2019-02-24T16:12:28.048Z,9.52
2019-02-24T16:13:27.995Z,9.52
2019-02-24T16:14:27.904Z,9.49
2019-02-24T16:15:27.816Z,9.56
2019-02-24T16:16:27.751Z,9.53
2019-02-24T16:17:27.663Z,9.37
2019-02-24T16:18:27.583Z,9.34
2019-02-24T16:19:27.510Z,9.28
2019-02-24T16:20:27.430Z,9.24
2019-02-24T16:21:27.349Z,9.22
2019-02-24T16:22:27.272Z,9.17
2019-02-24T16:23:27.193Z,9.12
2019-02-24T16:24:27.114Z,8.98
2019-02-24T16:25:27.038Z,9.02
2019-02-24T16:26:26.960Z,8.82
2019-02-24T16:27:26.878Z,8.76
2019-02-24T16:28:26.819Z,8.72
2019-02-24T16:29:26.742Z,8.62
2019-02-24T16:30:26.648Z,8.48
2019-02-24T16:31:26.563Z,8.37
2019-02-24T16:32:26.492Z,8.44
2019-02-24T16:33:26.406Z,8.22
2019-02-24T16:34:26.333Z,8.14
2019-02-24T16:35:26.251Z,8.15
2019-02-24T16:36:26.173Z,8.11
2019-02-24T16:37:26.090Z,8.04
2019-02-24T16:38:26.017Z,8.04
2019-02-24T16:39:25.934Z,7.96
2019-02-24T16:40:25.856Z,7.99
2019-02-24T16:41:25.777Z,7.85
2019-02-24T16:42:25.743Z,7.91
2019-02-24T16:43:25.641Z,7.93
2019-02-24T16:44:25.562Z,7.76
2019-02-24T16:45:25.464Z,7.60
2019-02-24T16:46:25.405Z,7.41
2019-02-24T16:47:25.313Z,7.29
2019-02-24T16:48:25.231Z,6.93
2019-02-24T16:49:25.162Z,6.76
2019-02-24T16:50:25.076Z,6.63
2019-02-24T16:51:25.000Z,6.57
2019-02-24T16:52:24.910Z,6.51
2019-02-24T16:53:24.830Z,6.47